Time;durP1;ratioP1;P1;durP2;ratioP2;P2;SDS_P1;SDS_P2;PMS_P1;PMS_P2;Temp;Humidity;BMP_temperature;BMP_pressure;BME280_temperature;BME280_humidity;BME280_pressure;Samples;Min_cycle;Max_cycle;Signal;HPM_P1;HPM_P2
2023/08/23 00:02:08;;;;;;;7.55;1.65;;;;;;;;;;5002030;28;20069;-44
2023/08/23 00:04:42;;;;;;;8.80;1.35;;;;;;;;;;5013725;28;20040;-47
2023/08/23 00:07:15;;;;;;;28.98;3.15;;;;;;;;;;5014335;28;20150;-43
2023/08/23 00:09:48;;;;;;;10.23;1.33;;;;;;;;;;5014280;28;20044;-47
2023/08/23 00:12:22;;;;;;;26.77;3.05;;;;;;;;;;5008933;28;20088;-36
2023/08/23 00:14:58;;;;;;;8.43;1.40;;;;;;;;;;5012413;28;20048;-40
2023/08/23 00:17:31;;;;;;;14.95;1.83;;;;;;;;;;5013288;28;20046;-42
2023/08/23 00:20:04;;;;;;;19.27;2.45;;;;;;;;;;5013930;28;20042;-41
2023/08/23 00:22:38;;;;;;;15.20;2.85;;;;;;;;;;5025841;28;20073;-41
2023/08/23 00:25:11;;;;;;;23.52;2.83;;;;;;;;;;5007174;28;20116;-41
2023/08/23 00:27:44;;;;;;;21.20;2.25;;;;;;;;;;5013713;28;20407;-45
2023/08/23 00:30:18;;;;;;;15.98;2.22;;;;;;;;;;4993319;28;20053;-44
2023/08/23 00:32:51;;;;;;;22.05;2.38;;;;;;;;;;5011296;28;20045;-41
2023/08/23 00:35:24;;;;;;;45.20;5.45;;;;;;;;;;4996456;28;20042;-45
2023/08/23 00:37:58;;;;;;;26.52;3.05;;;;;;;;;;5006351;28;20407;-37
2023/08/23 00:40:31;;;;;;;18.35;2.60;;;;;;;;;;5000849;28;20038;-35
2023/08/23 00:43:06;;;;;;;14.52;2.20;;;;;;;;;;5003945;28;20046;-34
2023/08/23 00:45:41;;;;;;;15.40;2.47;;;;;;;;;;5000821;28;20840;-42
2023/08/23 00:48:15;;;;;;;12.73;2.13;;;;;;;;;;5006377;28;20066;-42
2023/08/23 00:50:49;;;;;;;14.77;2.28;;;;;;;;;;5006870;28;20037;-45
2023/08/23 00:53:23;;;;;;;13.93;2.28;;;;;;;;;;5013340;28;20407;-45
2023/08/23 00:55:51;;;;;;;15.20;2.67;;;;;;;;;;5012605;28;20072;-42
2023/08/23 00:58:23;;;;;;;16.05;2.53;;;;;;;;;;5013412;28;20392;-46
2023/08/23 01:00:57;;;;;;;16.55;2.60;;;;;;;;;;5012452;28;20116;-44
2023/08/23 01:03:29;;;;;;;12.82;2.42;;;;;;;;;;5013167;28;20081;-43
2023/08/23 01:06:05;;;;;;;11.80;2.22;;;;;;;;;;5013318;28;20045;-48
2023/08/23 01:08:59;;;;;;;26.25;3.10;;;;;;;;;;5012774;28;20065;-47
2023/08/23 01:11:48;;;;;;;18.33;2.97;;;;;;;;;;5012927;28;20077;-39
2023/08/23 01:14:34;;;;;;;14.93;2.20;;;;;;;;;;5012726;28;20050;-46
2023/08/23 01:17:09;;;;;;;13.45;2.53;;;;;;;;;;5000163;28;20052;-46
2023/08/23 01:19:46;;;;;;;19.15;2.78;;;;;;;;;;5012974;28;20388;-43
2023/08/23 01:22:24;;;;;;;18.85;3.38;;;;;;;;;;5012943;28;20041;-40
2023/08/23 01:24:57;;;;;;;15.80;3.30;;;;;;;;;;5013156;28;20033;-43
2023/08/23 01:27:32;;;;;;;20.20;3.35;;;;;;;;;;5012725;28;20430;-43
2023/08/23 01:30:01;;;;;;;17.05;2.83;;;;;;;;;;5012833;28;20666;-45
2023/08/23 01:32:36;;;;;;;14.30;3.42;;;;;;;;;;5012414;28;20484;-43
2023/08/23 01:35:12;;;;;;;14.15;3.15;;;;;;;;;;5012916;28;20069;-43
2023/08/23 01:37:47;;;;;;;20.02;3.60;;;;;;;;;;5012248;28;20179;-43
2023/08/23 01:40:21;;;;;;;19.23;4.18;;;;;;;;;;5007666;28;20046;-41
2023/08/23 01:42:54;;;;;;;24.88;3.67;;;;;;;;;;5010597;28;20365;-43
2023/08/23 01:45:39;;;;;;;12.73;3.13;;;;;;;;;;5009059;28;20161;-43
2023/08/23 01:48:12;;;;;;;19.23;2.97;;;;;;;;;;5003728;28;20037;-38
2023/08/23 01:50:47;;;;;;;16.25;3.28;;;;;;;;;;4999845;28;20037;-43
2023/08/23 01:53:21;;;;;;;19.05;4.15;;;;;;;;;;5011754;28;20144;-45
2023/08/23 01:55:55;;;;;;;17.42;3.92;;;;;;;;;;5012454;28;20030;-33
2023/08/23 01:58:26;;;;;;;18.17;4.10;;;;;;;;;;5012114;28;20072;-39
2023/08/23 02:01:00;;;;;;;18.27;3.97;;;;;;;;;;5011490;28;20050;-45
2023/08/23 02:03:33;;;;;;;17.35;4.57;;;;;;;;;;5009166;28;20476;-38
2023/08/23 02:06:06;;;;;;;20.13;4.10;;;;;;;;;;5010886;28;20034;-40
2023/08/23 02:08:40;;;;;;;17.52;3.08;;;;;;;;;;5011308;28;20038;-45
2023/08/23 02:11:13;;;;;;;15.60;4.13;;;;;;;;;;5011383;28;20069;-36
2023/08/23 02:13:46;;;;;;;12.52;3.65;;;;;;;;;;5011316;28;20046;-36
2023/08/23 02:16:19;;;;;;;16.30;4.00;;;;;;;;;;5011524;28;20082;-44
2023/08/23 02:18:53;;;;;;;14.10;3.63;;;;;;;;;;5009292;28;20042;-44
2023/08/23 02:21:27;;;;;;;9.43;3.42;;;;;;;;;;5011481;28;20033;-45
2023/08/23 02:24:00;;;;;;;10.15;2.80;;;;;;;;;;5011822;28;20057;-45
2023/08/23 02:26:37;;;;;;;12.57;3.00;;;;;;;;;;5005931;28;20045;-45
2023/08/23 02:29:10;;;;;;;14.20;3.53;;;;;;;;;;5009064;28;20045;-43
2023/08/23 02:31:43;;;;;;;12.00;2.90;;;;;;;;;;5011573;28;20037;-38
2023/08/23 02:34:16;;;;;;;9.15;2.60;;;;;;;;;;5009796;28;20061;-45
2023/08/23 02:36:50;;;;;;;10.77;2.80;;;;;;;;;;5009508;28;20046;-39
2023/08/23 02:39:23;;;;;;;7.43;2.45;;;;;;;;;;5011465;28;20168;-39
2023/08/23 02:41:56;;;;;;;10.30;2.80;;;;;;;;;;5011368;28;20120;-45
2023/08/23 02:44:29;;;;;;;11.00;2.88;;;;;;;;;;5007622;28;20053;-37
2023/08/23 02:47:02;;;;;;;6.75;2.17;;;;;;;;;;5012069;28;20038;-36
2023/08/23 02:49:35;;;;;;;8.40;2.83;;;;;;;;;;5011986;28;20032;-40
2023/08/23 02:52:09;;;;;;;12.05;3.03;;;;;;;;;;5011365;28;20034;-42
2023/08/23 02:54:40;;;;;;;10.10;2.35;;;;;;;;;;5011713;28;20068;-41
2023/08/23 02:57:13;;;;;;;9.10;2.38;;;;;;;;;;5011882;28;20029;-36
2023/08/23 02:59:46;;;;;;;7.35;2.35;;;;;;;;;;5011941;28;20053;-38
2023/08/23 03:02:20;;;;;;;7.55;2.10;;;;;;;;;;5011813;28;20034;-39
2023/08/23 03:04:53;;;;;;;12.52;2.45;;;;;;;;;;5011906;28;20033;-38
2023/08/23 03:07:25;;;;;;;7.57;2.25;;;;;;;;;;5011686;28;20104;-40
2023/08/23 03:09:57;;;;;;;9.55;2.40;;;;;;;;;;5011855;28;20038;-38
2023/08/23 03:12:30;;;;;;;6.88;2.10;;;;;;;;;;5011592;28;20132;-38
2023/08/23 03:15:04;;;;;;;7.72;2.05;;;;;;;;;;5011710;28;20029;-42
2023/08/23 03:17:36;;;;;;;6.25;1.52;;;;;;;;;;5011708;28;20038;-43
2023/08/23 03:20:10;;;;;;;7.18;1.80;;;;;;;;;;5011633;28;20050;-43
2023/08/23 03:22:43;;;;;;;6.10;1.90;;;;;;;;;;5011580;28;20544;-44
2023/08/23 03:25:17;;;;;;;7.10;1.73;;;;;;;;;;5011504;28;20030;-45
2023/08/23 03:27:52;;;;;;;4.00;1.75;;;;;;;;;;5010414;28;20156;-45
2023/08/23 03:30:25;;;;;;;4.68;1.67;;;;;;;;;;5011482;28;20684;-38
2023/08/23 03:32:59;;;;;;;4.57;1.33;;;;;;;;;;5011414;28;20038;-39
2023/08/23 03:35:33;;;;;;;4.00;1.75;;;;;;;;;;5011552;28;20033;-37
2023/08/23 03:38:07;;;;;;;5.03;1.40;;;;;;;;;;5011533;28;20034;-36
2023/08/23 03:40:43;;;;;;;6.32;1.73;;;;;;;;;;5011416;28;20038;-39
2023/08/23 03:43:17;;;;;;;3.03;1.20;;;;;;;;;;5007986;28;20049;-38
2023/08/23 03:45:53;;;;;;;3.60;1.42;;;;;;;;;;5011444;28;20108;-38
2023/08/23 03:48:25;;;;;;;5.35;1.80;;;;;;;;;;5011351;28;20034;-41
2023/08/23 03:50:54;;;;;;;;;;;;;;;;;;5011773;28;20026;-39
2023/08/23 03:53:28;;;;;;;5.35;1.65;;;;;;;;;;5011286;28;19928;-44
2023/08/23 03:56:01;;;;;;;3.38;1.42;;;;;;;;;;5011369;28;20041;-45
2023/08/23 03:58:35;;;;;;;4.07;1.50;;;;;;;;;;5011329;28;20053;-45
2023/08/23 04:01:09;;;;;;;3.50;1.30;;;;;;;;;;5011328;28;20049;-45
2023/08/23 04:03:42;;;;;;;3.72;1.45;;;;;;;;;;5012824;28;20036;-41
2023/08/23 04:06:11;;;;;;;4.50;1.30;;;;;;;;;;5014841;28;20030;-38
2023/08/23 04:08:38;;;;;;;3.05;1.33;;;;;;;;;;5014921;28;20040;-37
2023/08/23 04:11:05;;;;;;;4.47;1.30;;;;;;;;;;5013424;28;20131;-37
2023/08/23 04:13:32;;;;;;;4.78;1.20;;;;;;;;;;5014585;28;20065;-38
2023/08/23 04:15:59;;;;;;;3.05;1.08;;;;;;;;;;5022548;28;20036;-41
2023/08/23 04:18:26;;;;;;;3.67;1.40;;;;;;;;;;5034436;28;20030;-41
2023/08/23 04:21:00;;;;;;;3.47;1.20;;;;;;;;;;5034295;28;20431;-37
2023/08/23 04:23:27;;;;;;;3.13;1.08;;;;;;;;;;5034397;28;20037;-37
2023/08/23 04:25:54;;;;;;;3.00;1.15;;;;;;;;;;5034273;28;20037;-39
2023/08/23 04:28:21;;;;;;;2.58;0.90;;;;;;;;;;5034270;28;20033;-40
2023/08/23 04:30:48;;;;;;;2.05;0.98;;;;;;;;;;5034098;28;20091;-37
2023/08/23 04:33:15;;;;;;;3.05;0.98;;;;;;;;;;5034166;28;20049;-38
2023/08/23 04:35:42;;;;;;;3.00;1.00;;;;;;;;;;5034148;28;20028;-39
2023/08/23 04:38:13;;;;;;;2.90;1.15;;;;;;;;;;5034115;28;20018;-40
2023/08/23 04:40:40;;;;;;;1.50;0.80;;;;;;;;;;5033883;28;20708;-40
2023/08/23 04:43:07;;;;;;;2.78;1.20;;;;;;;;;;5033932;28;20025;-37
2023/08/23 04:45:37;;;;;;;4.35;0.90;;;;;;;;;;5033827;28;20586;-41
2023/08/23 04:48:05;;;;;;;2.00;0.85;;;;;;;;;;5033942;28;20104;-39
2023/08/23 04:50:34;;;;;;;2.70;1.08;;;;;;;;;;5033747;28;20026;-38
2023/08/23 04:53:01;;;;;;;1.77;0.65;;;;;;;;;;5033661;28;20034;-39
2023/08/23 04:55:28;;;;;;;1.52;0.77;;;;;;;;;;5033775;28;20026;-38
2023/08/23 04:57:55;;;;;;;1.65;0.60;;;;;;;;;;5033784;28;20369;-38
2023/08/23 05:00:22;;;;;;;2.35;0.82;;;;;;;;;;5033658;28;20049;-41
2023/08/23 05:02:49;;;;;;;1.95;0.82;;;;;;;;;;5033578;28;20030;-40
2023/08/23 05:05:16;;;;;;;1.75;0.73;;;;;;;;;;5033586;28;20041;-38
2023/08/23 05:07:43;;;;;;;1.48;0.60;;;;;;;;;;5033590;28;20510;-40
2023/08/23 05:10:10;;;;;;;2.35;0.82;;;;;;;;;;5033455;28;20029;-40
2023/08/23 05:12:37;;;;;;;2.05;0.90;;;;;;;;;;5033210;28;20079;-38
2023/08/23 05:15:05;;;;;;;1.55;0.65;;;;;;;;;;5033185;28;20021;-41
2023/08/23 05:17:32;;;;;;;2.25;0.85;;;;;;;;;;5033387;28;20025;-38
2023/08/23 05:19:59;;;;;;;1.92;0.65;;;;;;;;;;5033388;28;20029;-42
2023/08/23 05:22:26;;;;;;;1.80;0.70;;;;;;;;;;5031767;28;20030;-37
2023/08/23 05:24:53;;;;;;;1.38;0.57;;;;;;;;;;5033215;28;20026;-38
2023/08/23 05:27:20;;;;;;;1.55;0.70;;;;;;;;;;5033208;28;20111;-38
2023/08/23 05:29:47;;;;;;;1.35;0.63;;;;;;;;;;5033175;28;20028;-36
2023/08/23 05:32:14;;;;;;;1.63;0.70;;;;;;;;;;5032985;28;20754;-38
2023/08/23 05:34:41;;;;;;;1.25;0.45;;;;;;;;;;5032946;28;20034;-41
2023/08/23 05:37:08;;;;;;;0.82;0.40;;;;;;;;;;5032955;28;20369;-36
2023/08/23 05:39:35;;;;;;;2.30;0.45;;;;;;;;;;5032942;28;20035;-38
2023/08/23 05:42:02;;;;;;;1.33;0.50;;;;;;;;;;5032721;28;20026;-37
2023/08/23 05:44:29;;;;;;;1.90;0.70;;;;;;;;;;5031342;28;20407;-38
2023/08/23 05:46:56;;;;;;;0.93;0.50;;;;;;;;;;5032896;28;20395;-38
2023/08/23 05:49:59;;;;;;;1.88;0.50;;;;;;;;;;5032770;28;20360;-39
2023/08/23 05:52:26;;;;;;;0.85;0.50;;;;;;;;;;5032575;28;20038;-37
2023/08/23 05:54:53;;;;;;;1.65;0.52;;;;;;;;;;5032652;28;20767;-40
2023/08/23 05:57:20;;;;;;;0.80;0.30;;;;;;;;;;5032624;28;20104;-40
2023/08/23 05:59:47;;;;;;;1.13;0.50;;;;;;;;;;5032572;28;20029;-40
2023/08/23 06:02:14;;;;;;;0.82;0.47;;;;;;;;;;5030298;28;20398;-45
2023/08/23 06:04:41;;;;;;;1.13;0.38;;;;;;;;;;5032504;28;20438;-43
2023/08/23 06:07:09;;;;;;;0.68;0.40;;;;;;;;;;5032381;28;20109;-44
2023/08/23 06:09:37;;;;;;;0.75;0.32;;;;;;;;;;5032381;28;20026;-43
2023/08/23 06:12:04;;;;;;;0.35;0.30;;;;;;;;;;5032202;28;20030;-45
2023/08/23 06:14:31;;;;;;;2.30;0.38;;;;;;;;;;5032192;28;20045;-44
2023/08/23 06:16:58;;;;;;;0.77;0.40;;;;;;;;;;5032185;28;20034;-44
2023/08/23 06:19:25;;;;;;;0.50;0.30;;;;;;;;;;5032269;28;20052;-43
2023/08/23 06:21:52;;;;;;;1.42;0.50;;;;;;;;;;5032099;28;20029;-43
2023/08/23 06:24:19;;;;;;;0.40;0.30;;;;;;;;;;5032123;28;20029;-43
2023/08/23 06:26:46;;;;;;;0.52;0.28;;;;;;;;;;5031309;28;20029;-42
2023/08/23 06:29:13;;;;;;;0.50;0.20;;;;;;;;;;5032036;28;20036;-43
2023/08/23 06:31:41;;;;;;;0.63;0.30;;;;;;;;;;5031805;28;20034;-42
2023/08/23 06:34:08;;;;;;;1.05;0.30;;;;;;;;;;5031850;28;20044;-45
2023/08/23 06:36:35;;;;;;;1.55;0.50;;;;;;;;;;5031968;28;20056;-45
2023/08/23 06:39:02;;;;;;;0.35;0.30;;;;;;;;;;5031905;28;20032;-43
2023/08/23 06:41:29;;;;;;;0.95;0.30;;;;;;;;;;5031795;28;20052;-45
2023/08/23 06:44:00;;;;;;;0.65;0.25;;;;;;;;;;5031686;28;20046;-43
2023/08/23 06:46:27;;;;;;;0.43;0.20;;;;;;;;;;5031847;28;20025;-43
2023/08/23 06:48:57;;;;;;;0.52;0.30;;;;;;;;;;5031794;28;20041;-44
2023/08/23 06:51:27;;;;;;;0.30;0.20;;;;;;;;;;5031781;28;20025;-44
2023/08/23 06:53:54;;;;;;;0.55;0.30;;;;;;;;;;5031603;28;20037;-45
2023/08/23 06:56:21;;;;;;;0.80;0.28;;;;;;;;;;5031668;28;20475;-44
2023/08/23 06:58:48;;;;;;;0.30;0.20;;;;;;;;;;5031736;28;20029;-43
2023/08/23 07:01:16;;;;;;;0.22;0.20;;;;;;;;;;5031613;28;20026;-45
2023/08/23 07:03:43;;;;;;;0.80;0.40;;;;;;;;;;5031658;28;20368;-43
2023/08/23 07:06:14;;;;;;;0.30;0.20;;;;;;;;;;5031710;28;20081;-44
2023/08/23 07:08:41;;;;;;;0.20;0.20;;;;;;;;;;5031565;28;20029;-44
2023/08/23 07:11:09;;;;;;;0.20;0.20;;;;;;;;;;5031473;28;20025;-44
2023/08/23 07:13:38;;;;;;;0.60;0.30;;;;;;;;;;5031519;28;20076;-44
2023/08/23 07:18:41;;;;;;;0.75;0.25;;;;;;;;;;4962701;28;20070;-36
2023/08/23 07:21:08;;;;;;;0.70;0.20;;;;;;;;;;4972768;28;20034;-37
2023/08/23 07:23:36;;;;;;;0.20;0.20;;;;;;;;;;4972597;28;20043;-36
2023/08/23 07:26:03;;;;;;;0.10;0.10;;;;;;;;;;4972775;28;20515;-37
2023/08/23 07:28:30;;;;;;;0.20;0.20;;;;;;;;;;4972552;28;20046;-37
2023/08/23 07:30:57;;;;;;;0.68;0.28;;;;;;;;;;4972472;28;20038;-37
2023/08/23 07:33:25;;;;;;;0.30;0.20;;;;;;;;;;4972614;28;20542;-36
2023/08/23 07:35:59;;;;;;;0.45;0.25;;;;;;;;;;4972619;28;20069;-37
2023/08/23 07:38:28;;;;;;;0.80;0.20;;;;;;;;;;4973749;28;20038;-36
2023/08/23 07:40:58;;;;;;;0.20;0.20;;;;;;;;;;4976216;28;20138;-37
2023/08/23 07:43:26;;;;;;;0.20;0.20;;;;;;;;;;4975961;28;20034;-36
2023/08/23 07:45:56;;;;;;;0.20;0.20;;;;;;;;;;4976261;28;20026;-37
2023/08/23 07:48:24;;;;;;;0.93;0.35;;;;;;;;;;4976138;28;20054;-36
2023/08/23 07:50:51;;;;;;;0.38;0.25;;;;;;;;;;4976143;28;20038;-37
2023/08/23 07:53:19;;;;;;;0.30;0.30;;;;;;;;;;4976056;28;20137;-36
2023/08/23 07:55:46;;;;;;;0.32;0.20;;;;;;;;;;4976077;28;20037;-37
2023/08/23 07:58:13;;;;;;;0.10;0.10;;;;;;;;;;4975955;28;20476;-36
2023/08/23 08:00:40;;;;;;;0.20;0.20;;;;;;;;;;4976031;28;20035;-36
2023/08/23 08:03:07;;;;;;;0.25;0.20;;;;;;;;;;4975736;28;20441;-37
2023/08/23 08:05:34;;;;;;;0.20;0.20;;;;;;;;;;4975918;28;20497;-36
2023/08/23 08:08:02;;;;;;;0.40;0.17;;;;;;;;;;4975597;28;20366;-37
2023/08/23 08:10:29;;;;;;;0.20;0.20;;;;;;;;;;4975838;28;20393;-36
2023/08/23 08:12:58;;;;;;;0.35;0.20;;;;;;;;;;4975680;28;20481;-36
2023/08/23 08:15:25;;;;;;;0.30;0.10;;;;;;;;;;4975516;28;20039;-36
2023/08/23 08:17:53;;;;;;;0.20;0.20;;;;;;;;;;4975440;28;20058;-37
2023/08/23 08:20:20;;;;;;;2.17;0.20;;;;;;;;;;4975545;28;20094;-36
2023/08/23 08:22:48;;;;;;;0.10;0.10;;;;;;;;;;4975587;28;20544;-37
2023/08/23 08:25:15;;;;;;;0.35;0.20;;;;;;;;;;4975545;28;20077;-37
2023/08/23 08:27:42;;;;;;;0.32;0.10;;;;;;;;;;4975328;28;20019;-37
2023/08/23 08:30:09;;;;;;;0.32;0.20;;;;;;;;;;4975460;28;20109;-36
2023/08/23 08:32:36;;;;;;;0.17;0.13;;;;;;;;;;4975279;28;20023;-37
2023/08/23 08:35:04;;;;;;;0.57;0.20;;;;;;;;;;4975437;28;20396;-36
2023/08/23 08:37:31;;;;;;;0.20;0.10;;;;;;;;;;4975077;28;20031;-37
2023/08/23 08:39:58;;;;;;;0.30;0.10;;;;;;;;;;4975244;28;20023;-37
2023/08/23 08:42:25;;;;;;;1.52;0.20;;;;;;;;;;4975253;28;20442;-37
2023/08/23 08:44:52;;;;;;;0.20;0.20;;;;;;;;;;4975199;28;20042;-37
2023/08/23 08:47:19;;;;;;;0.20;0.17;;;;;;;;;;4975054;28;20031;-36
2023/08/23 08:49:46;;;;;;;0.63;0.20;;;;;;;;;;4974201;28;20031;-37
2023/08/23 08:52:13;;;;;;;0.10;0.10;;;;;;;;;;4975033;28;20035;-36
2023/08/23 08:54:44;;;;;;;0.13;0.13;;;;;;;;;;4974809;28;20078;-36
2023/08/23 08:57:12;;;;;;;0.20;0.20;;;;;;;;;;4974921;28;20035;-37
2023/08/23 08:59:40;;;;;;;0.22;0.20;;;;;;;;;;4974958;28;20030;-37
2023/08/23 09:02:08;;;;;;;0.35;0.20;;;;;;;;;;4974718;28;20034;-36
2023/08/23 09:04:35;;;;;;;0.10;0.10;;;;;;;;;;4974809;28;20037;-36
2023/08/23 09:07:02;;;;;;;0.20;0.20;;;;;;;;;;4974732;28;20022;-36
2023/08/23 09:09:29;;;;;;;0.55;0.30;;;;;;;;;;4974752;28;20037;-36
2023/08/23 09:11:56;;;;;;;0.10;0.10;;;;;;;;;;4974760;28;20506;-36
2023/08/23 09:14:26;;;;;;;0.20;0.20;;;;;;;;;;4974484;28;20134;-36
2023/08/23 09:16:53;;;;;;;0.20;0.20;;;;;;;;;;4974328;28;20058;-36
2023/08/23 09:19:21;;;;;;;0.25;0.20;;;;;;;;;;4974616;28;20031;-36
2023/08/23 09:21:49;;;;;;;0.80;0.20;;;;;;;;;;4974519;28;20042;-36
2023/08/23 09:24:16;;;;;;;0.32;0.15;;;;;;;;;;4974310;28;20382;-37
2023/08/23 09:26:46;;;;;;;0.10;0.10;;;;;;;;;;4974283;28;20054;-37
2023/08/23 09:29:13;;;;;;;1.13;0.20;;;;;;;;;;4974356;28;20030;-37
2023/08/23 09:31:40;;;;;;;0.30;0.20;;;;;;;;;;4966726;28;20046;-36
2023/08/23 09:34:15;;;;;;;0.20;0.10;;;;;;;;;;4954841;29;20468;-37
2023/08/23 09:36:43;;;;;;;0.15;0.10;;;;;;;;;;4954899;29;20038;-37
2023/08/23 09:39:10;;;;;;;0.28;0.20;;;;;;;;;;4954112;29;20028;-37
2023/08/23 09:41:41;;;;;;;0.50;0.20;;;;;;;;;;4953995;29;20032;-37
2023/08/23 09:44:09;;;;;;;0.20;0.20;;;;;;;;;;4935574;29;20036;-36
2023/08/23 09:46:36;;;;;;;0.13;0.13;;;;;;;;;;4935388;29;20051;-37
2023/08/23 09:49:07;;;;;;;3.35;0.43;;;;;;;;;;4938631;29;20031;-37
2023/08/23 09:51:39;;;;;;;3.65;0.40;;;;;;;;;;4954519;28;20043;-40
2023/08/23 09:54:13;;;;;;;5.20;0.50;;;;;;;;;;4954225;29;20070;-39
2023/08/23 09:56:45;;;;;;;8.38;0.90;;;;;;;;;;4950858;28;20023;-47
2023/08/23 09:59:12;;;;;;;13.90;1.25;;;;;;;;;;4946638;28;20093;-42
2023/08/23 10:01:39;;;;;;;9.50;1.33;;;;;;;;;;4952255;28;20034;-38
2023/08/23 10:04:08;;;;;;;7.40;1.15;;;;;;;;;;4950710;29;20494;-38
2023/08/23 10:06:35;;;;;;;7.43;0.93;;;;;;;;;;4952861;29;20070;-38
2023/08/23 10:09:03;;;;;;;5.32;0.68;;;;;;;;;;4951934;29;20067;-39
2023/08/23 10:11:31;;;;;;;9.93;0.80;;;;;;;;;;4953514;28;20097;-40
2023/08/23 10:13:58;;;;;;;12.73;1.33;;;;;;;;;;4948048;28;20046;-40
2023/08/23 10:16:26;;;;;;;6.60;0.75;;;;;;;;;;4951983;28;20092;-38
2023/08/23 10:18:54;;;;;;;4.55;0.70;;;;;;;;;;4951730;28;20041;-38
2023/08/23 10:21:21;;;;;;;7.68;1.00;;;;;;;;;;4953421;29;20050;-38
2023/08/23 10:23:48;;;;;;;7.10;0.85;;;;;;;;;;4953390;29;20098;-39
2023/08/23 10:26:19;;;;;;;5.80;0.93;;;;;;;;;;4948789;29;20382;-38
2023/08/23 10:28:53;;;;;;;5.22;0.70;;;;;;;;;;4951830;29;20190;-38
2023/08/23 10:31:27;;;;;;;3.13;0.70;;;;;;;;;;4951212;29;20027;-38
2023/08/23 10:33:58;;;;;;;3.40;0.70;;;;;;;;;;4953106;29;20266;-38
2023/08/23 10:36:27;;;;;;;1.95;0.43;;;;;;;;;;4952031;28;20496;-40
2023/08/23 10:38:57;;;;;;;3.25;0.70;;;;;;;;;;4949964;28;20023;-38
2023/08/23 10:41:24;;;;;;;8.63;1.20;;;;;;;;;;4951624;28;20019;-42
2023/08/23 10:43:52;;;;;;;1.63;0.65;;;;;;;;;;4953095;29;20050;-41
2023/08/23 10:46:20;;;;;;;6.07;0.70;;;;;;;;;;4952879;29;20030;-41
2023/08/23 10:48:47;;;;;;;16.17;1.92;;;;;;;;;;4949992;28;20035;-41
2023/08/23 10:51:15;;;;;;;23.05;1.50;;;;;;;;;;4951656;28;20034;-41
2023/08/23 10:53:43;;;;;;;7.07;1.00;;;;;;;;;;4953405;28;20031;-40
2023/08/23 10:56:10;;;;;;;6.18;0.80;;;;;;;;;;4952710;28;20042;-44
2023/08/23 10:58:38;;;;;;;5.28;1.00;;;;;;;;;;4952688;29;20031;-46
2023/08/23 11:01:05;;;;;;;10.65;0.95;;;;;;;;;;4946904;28;20039;-44
2023/08/23 11:03:35;;;;;;;2.97;0.65;;;;;;;;;;4952587;29;20066;-40
2023/08/23 11:06:03;;;;;;;3.17;0.70;;;;;;;;;;4952527;29;20094;-43
2023/08/23 11:08:31;;;;;;;1.65;0.50;;;;;;;;;;4952762;29;20027;-42
2023/08/23 11:10:58;;;;;;;3.70;0.80;;;;;;;;;;4939912;29;20035;-40
2023/08/23 11:13:25;;;;;;;14.35;1.33;;;;;;;;;;4953164;28;20126;-43
2023/08/23 11:15:52;;;;;;;11.10;1.30;;;;;;;;;;4956706;28;20031;-37
2023/08/23 11:18:19;;;;;;;10.38;0.65;;;;;;;;;;4957164;28;20138;-38
2023/08/23 11:20:47;;;;;;;6.60;0.93;;;;;;;;;;4957421;28;20023;-38
2023/08/23 11:23:13;;;;;;;7.97;1.00;;;;;;;;;;4957000;28;20027;-38
2023/08/23 11:25:41;;;;;;;3.58;0.77;;;;;;;;;;4957341;28;20035;-37
2023/08/23 11:28:08;;;;;;;5.03;0.63;;;;;;;;;;4957288;28;20027;-38
2023/08/23 11:30:35;;;;;;;3.33;0.77;;;;;;;;;;4957359;29;20030;-38
2023/08/23 11:33:03;;;;;;;4.20;0.60;;;;;;;;;;4957216;28;20073;-38
2023/08/23 11:35:30;;;;;;;4.78;0.73;;;;;;;;;;4957267;28;20035;-37
2023/08/23 11:37:57;;;;;;;4.28;0.60;;;;;;;;;;4957075;28;20035;-37
2023/08/23 11:40:24;;;;;;;7.60;1.00;;;;;;;;;;4957161;28;20085;-38
2023/08/23 11:42:56;;;;;;;3.80;0.65;;;;;;;;;;4957119;28;20023;-37
2023/08/23 11:45:23;;;;;;;7.65;0.90;;;;;;;;;;4956393;28;20122;-38
2023/08/23 11:47:53;;;;;;;5.93;1.48;;;;;;;;;;4955333;29;20158;-37
2023/08/23 11:50:20;;;;;;;4.32;0.80;;;;;;;;;;4955976;29;20482;-38
2023/08/23 11:52:50;;;;;;;7.70;0.70;;;;;;;;;;4965872;28;20444;-36
2023/08/23 11:55:21;;;;;;;6.13;0.90;;;;;;;;;;4962296;28;20043;-37
2023/08/23 11:57:55;;;;;;;3.03;0.75;;;;;;;;;;4962215;28;20093;-38
2023/08/23 12:00:23;;;;;;;6.82;0.90;;;;;;;;;;4951975;29;20042;-37
2023/08/23 12:02:50;;;;;;;10.95;0.88;;;;;;;;;;4955751;29;20027;-37
2023/08/23 12:05:20;;;;;;;12.23;1.23;;;;;;;;;;4956518;29;20054;-37
2023/08/23 12:07:47;;;;;;;13.27;1.10;;;;;;;;;;4955738;28;20030;-37
2023/08/23 12:10:14;;;;;;;12.27;0.90;;;;;;;;;;4956371;28;20496;-37
2023/08/23 12:12:41;;;;;;;6.53;0.98;;;;;;;;;;4956332;28;20031;-37
2023/08/23 12:15:08;;;;;;;14.95;1.15;;;;;;;;;;4956445;29;20141;-37
2023/08/23 12:17:35;;;;;;;9.02;1.20;;;;;;;;;;4955999;28;20063;-38
2023/08/23 12:20:04;;;;;;;12.98;1.38;;;;;;;;;;4956362;28;20036;-37
2023/08/23 12:22:31;;;;;;;8.57;1.00;;;;;;;;;;4956197;28;20046;-37
2023/08/23 12:24:58;;;;;;;14.00;1.00;;;;;;;;;;4955066;28;20050;-37
2023/08/23 12:27:25;;;;;;;6.75;0.95;;;;;;;;;;4956144;28;20031;-37
2023/08/23 12:29:52;;;;;;;8.52;1.00;;;;;;;;;;4956251;28;20059;-37
2023/08/23 12:32:20;;;;;;;8.98;1.08;;;;;;;;;;4956191;28;20035;-37
2023/08/23 12:34:47;;;;;;;5.90;0.93;;;;;;;;;;4955869;29;20043;-37
2023/08/23 12:37:15;;;;;;;6.45;1.13;;;;;;;;;;4955985;28;20393;-37
2023/08/23 12:39:42;;;;;;;9.02;1.20;;;;;;;;;;4956090;28;20397;-37
2023/08/23 12:42:09;;;;;;;5.97;0.90;;;;;;;;;;4956023;28;20030;-37
2023/08/23 12:44:36;;;;;;;8.18;1.10;;;;;;;;;;4955982;28;20038;-37
2023/08/23 12:47:03;;;;;;;4.28;0.88;;;;;;;;;;4955885;28;20489;-37
2023/08/23 12:49:30;;;;;;;6.07;0.60;;;;;;;;;;4955858;28;20032;-37
2023/08/23 12:51:57;;;;;;;7.97;1.25;;;;;;;;;;4955853;29;20550;-37
2023/08/23 12:54:24;;;;;;;6.03;0.90;;;;;;;;;;4955766;29;20035;-37
2023/08/23 12:56:51;;;;;;;2.42;0.70;;;;;;;;;;4955768;28;20114;-37
2023/08/23 12:59:18;;;;;;;5.15;1.05;;;;;;;;;;4955772;28;20074;-37
2023/08/23 13:01:45;;;;;;;3.05;0.60;;;;;;;;;;4955633;28;20481;-37
2023/08/23 13:04:12;;;;;;;3.47;0.57;;;;;;;;;;4955769;28;20039;-38
2023/08/23 13:06:39;;;;;;;4.28;0.70;;;;;;;;;;4955584;28;20038;-37
2023/08/23 13:09:06;;;;;;;4.00;0.60;;;;;;;;;;4955566;28;20042;-37
2023/08/23 13:11:33;;;;;;;4.03;0.63;;;;;;;;;;4955562;28;20031;-37
2023/08/23 13:14:00;;;;;;;1.75;0.50;;;;;;;;;;4955393;28;20038;-37
2023/08/23 13:16:27;;;;;;;3.20;0.55;;;;;;;;;;4955156;28;20508;-37
2023/08/23 13:18:54;;;;;;;4.28;0.70;;;;;;;;;;4955332;28;20023;-38
2023/08/23 13:21:21;;;;;;;4.63;0.70;;;;;;;;;;4955295;28;20370;-37
2023/08/23 13:23:48;;;;;;;2.83;0.52;;;;;;;;;;4955299;28;20061;-37
2023/08/23 13:26:15;;;;;;;2.90;0.50;;;;;;;;;;4955093;28;20035;-37
2023/08/23 13:28:42;;;;;;;2.88;0.60;;;;;;;;;;4955265;28;20039;-37
2023/08/23 13:31:09;;;;;;;2.25;0.50;;;;;;;;;;4955060;28;20031;-37
2023/08/23 13:33:36;;;;;;;2.05;0.60;;;;;;;;;;4955118;29;20114;-37
2023/08/23 13:36:04;;;;;;;1.70;0.50;;;;;;;;;;4954653;28;20023;-37
2023/08/23 13:38:31;;;;;;;2.13;0.60;;;;;;;;;;4954825;28;20031;-37
2023/08/23 13:40:58;;;;;;;2.90;0.77;;;;;;;;;;4954929;28;20046;-37
2023/08/23 13:43:24;;;;;;;1.98;0.60;;;;;;;;;;4954938;28;20027;-37
2023/08/23 13:45:51;;;;;;;2.72;0.68;;;;;;;;;;4954807;28;20031;-37
2023/08/23 13:48:19;;;;;;;1.63;0.35;;;;;;;;;;4954824;28;20030;-37
2023/08/23 13:50:47;;;;;;;2.60;0.60;;;;;;;;;;4954534;28;20066;-37
2023/08/23 13:53:14;;;;;;;1.55;0.43;;;;;;;;;;4954721;28;20397;-37
2023/08/23 13:55:41;;;;;;;2.92;0.70;;;;;;;;;;4954618;28;20107;-37
2023/08/23 13:58:08;;;;;;;2.08;0.57;;;;;;;;;;4954682;28;20485;-37
2023/08/23 14:00:35;;;;;;;2.75;0.60;;;;;;;;;;4937329;29;20405;-37
2023/08/23 14:03:02;;;;;;;2.50;0.73;;;;;;;;;;4954456;28;20370;-37
2023/08/23 14:05:29;;;;;;;2.22;0.50;;;;;;;;;;4954508;28;20030;-37
2023/08/23 14:07:56;;;;;;;1.45;0.60;;;;;;;;;;4954331;28;20389;-37
2023/08/23 14:10:23;;;;;;;1.48;0.50;;;;;;;;;;4954435;29;20180;-37
2023/08/23 14:12:50;;;;;;;1.42;0.30;;;;;;;;;;4954339;29;20114;-37
2023/08/23 14:15:18;;;;;;;4.68;0.57;;;;;;;;;;4954286;28;20038;-37
2023/08/23 14:17:44;;;;;;;0.85;0.50;;;;;;;;;;4954120;28;20051;-37
2023/08/23 14:20:12;;;;;;;1.98;0.63;;;;;;;;;;4954281;28;20507;-37
2023/08/23 14:22:39;;;;;;;1.38;0.50;;;;;;;;;;4954255;28;20019;-37
2023/08/23 14:25:06;;;;;;;2.97;0.63;;;;;;;;;;4954194;28;20042;-37
2023/08/23 14:27:33;;;;;;;2.47;0.50;;;;;;;;;;4954038;28;20062;-37
2023/08/23 14:30:00;;;;;;;1.25;0.40;;;;;;;;;;4954127;29;20048;-37
2023/08/23 14:32:28;;;;;;;0.73;0.40;;;;;;;;;;4954019;28;20385;-37
2023/08/23 14:34:55;;;;;;;1.77;0.47;;;;;;;;;;4953833;28;20047;-37
2023/08/23 14:37:22;;;;;;;1.25;0.40;;;;;;;;;;4953959;28;20075;-38
2023/08/23 14:39:49;;;;;;;1.10;0.40;;;;;;;;;;4953987;28;20434;-37
2023/08/23 14:42:16;;;;;;;0.98;0.50;;;;;;;;;;4953934;28;20474;-37
2023/08/23 14:44:44;;;;;;;0.40;0.30;;;;;;;;;;4954011;28;20168;-37
2023/08/23 14:47:11;;;;;;;0.75;0.30;;;;;;;;;;4953646;28;20039;-37
2023/08/23 14:49:38;;;;;;;2.20;0.55;;;;;;;;;;4953499;29;20033;-37
2023/08/23 14:52:05;;;;;;;1.48;0.38;;;;;;;;;;4953805;28;20031;-37
2023/08/23 14:54:32;;;;;;;0.85;0.40;;;;;;;;;;4953755;28;20038;-37
2023/08/23 14:56:59;;;;;;;1.70;0.30;;;;;;;;;;4953698;28;20027;-37